Terminal Aerodrome Forecast
Issued by NWS

Home | Current Version | Previous Version | Text Only | Print | Product List | Glossary On
Versions: 1 2 3 4 5 6 7 8 9 10 11 12 13
000
FTUS42 KTBW 312300
TAFLAL
TAF
KLAL 312335Z 0100/0124 26004KT P6SM SCT060 SCT250
     FM010100 VRB03KT P6SM FEW040 SCT250
     FM011500 28005KT P6SM FEW030 SCT250
     FM011800 27007KT P6SM VCTS SCT035CB BKN250
      AMD NOT SKED 0103/0112=

USA.gov is the U.S. government's official web portal to all federal, state and local government web resources and services.